sensor_id;sensor_type;location;lat;lon;timestamp;temperature;humidity
73322;DHT22;61549;37.044;22.128;2022-07-17T00:00:18;29.80;36.10
73322;DHT22;61549;37.044;22.128;2022-07-17T00:02:43;29.80;36.20
73322;DHT22;61549;37.044;22.128;2022-07-17T00:05:09;29.80;36.00
73322;DHT22;61549;37.044;22.128;2022-07-17T00:07:35;29.80;35.90
73322;DHT22;61549;37.044;22.128;2022-07-17T00:10:02;29.80;35.80
73322;DHT22;61549;37.044;22.128;2022-07-17T00:12:28;29.80;35.50
73322;DHT22;61549;37.044;22.128;2022-07-17T00:14:54;29.80;35.10
73322;DHT22;61549;37.044;22.128;2022-07-17T00:17:20;29.80;35.30
73322;DHT22;61549;37.044;22.128;2022-07-17T00:19:47;29.80;35.10
73322;DHT22;61549;37.044;22.128;2022-07-17T00:22:13;29.90;35.30
73322;DHT22;61549;37.044;22.128;2022-07-17T00:24:39;29.90;35.30
73322;DHT22;61549;37.044;22.128;2022-07-17T00:27:05;29.90;35.90
73322;DHT22;61549;37.044;22.128;2022-07-17T00:29:30;29.80;35.90
73322;DHT22;61549;37.044;22.128;2022-07-17T00:31:56;29.80;35.60
73322;DHT22;61549;37.044;22.128;2022-07-17T00:34:22;29.80;35.40
73322;DHT22;61549;37.044;22.128;2022-07-17T00:36:48;29.80;35.80
73322;DHT22;61549;37.044;22.128;2022-07-17T00:39:14;29.80;35.90
73322;DHT22;61549;37.044;22.128;2022-07-17T00:41:43;29.80;36.10
73322;DHT22;61549;37.044;22.128;2022-07-17T00:44:11;29.80;36.10
73322;DHT22;61549;37.044;22.128;2022-07-17T00:46:40;29.70;36.40
73322;DHT22;61549;37.044;22.128;2022-07-17T00:49:07;29.70;37.20
73322;DHT22;61549;37.044;22.128;2022-07-17T00:51:34;29.70;36.80
73322;DHT22;61549;37.044;22.128;2022-07-17T00:54:00;29.60;36.30
73322;DHT22;61549;37.044;22.128;2022-07-17T00:56:27;29.70;36.20
73322;DHT22;61549;37.044;22.128;2022-07-17T00:58:53;29.70;38.90
73322;DHT22;61549;37.044;22.128;2022-07-17T01:01:20;29.60;37.80
73322;DHT22;61549;37.044;22.128;2022-07-17T01:03:46;29.50;38.50
73322;DHT22;61549;37.044;22.128;2022-07-17T01:06:12;29.50;39.00
73322;DHT22;61549;37.044;22.128;2022-07-17T01:08:38;29.30;37.70
73322;DHT22;61549;37.044;22.128;2022-07-17T01:11:05;29.30;38.90
73322;DHT22;61549;37.044;22.128;2022-07-17T01:13:31;29.30;37.90
73322;DHT22;61549;37.044;22.128;2022-07-17T01:15:57;29.20;38.80
73322;DHT22;61549;37.044;22.128;2022-07-17T01:18:23;29.20;39.60
73322;DHT22;61549;37.044;22.128;2022-07-17T01:20:50;29.20;39.20
73322;DHT22;61549;37.044;22.128;2022-07-17T01:23:18;29.10;38.50
73322;DHT22;61549;37.044;22.128;2022-07-17T01:25:45;29.00;38.20
73322;DHT22;61549;37.044;22.128;2022-07-17T01:28:11;28.90;38.10
73322;DHT22;61549;37.044;22.128;2022-07-17T01:30:51;28.90;37.90
73322;DHT22;61549;37.044;22.128;2022-07-17T01:33:18;28.90;39.20
73322;DHT22;61549;37.044;22.128;2022-07-17T01:35:45;28.90;39.80
73322;DHT22;61549;37.044;22.128;2022-07-17T01:38:11;28.80;38.60
73322;DHT22;61549;37.044;22.128;2022-07-17T01:40:36;28.80;38.20
73322;DHT22;61549;37.044;22.128;2022-07-17T01:43:02;28.70;38.20
73322;DHT22;61549;37.044;22.128;2022-07-17T01:45:29;28.70;37.70
73322;DHT22;61549;37.044;22.128;2022-07-17T01:47:55;28.70;37.50
73322;DHT22;61549;37.044;22.128;2022-07-17T01:50:20;28.80;37.20
73322;DHT22;61549;37.044;22.128;2022-07-17T01:52:46;28.90;37.20
73322;DHT22;61549;37.044;22.128;2022-07-17T01:55:15;28.90;37.20
73322;DHT22;61549;37.044;22.128;2022-07-17T01:57:42;28.90;37.40
73322;DHT22;61549;37.044;22.128;2022-07-17T02:00:14;29.00;37.60
73322;DHT22;61549;37.044;22.128;2022-07-17T02:02:42;29.00;37.50
73322;DHT22;61549;37.044;22.128;2022-07-17T02:05:08;29.00;37.40
73322;DHT22;61549;37.044;22.128;2022-07-17T02:07:34;29.00;37.30
73322;DHT22;61549;37.044;22.128;2022-07-17T02:10:02;29.00;37.00
73322;DHT22;61549;37.044;22.128;2022-07-17T02:12:28;28.90;36.60
73322;DHT22;61549;37.044;22.128;2022-07-17T02:14:54;29.00;36.40
73322;DHT22;61549;37.044;22.128;2022-07-17T02:17:19;29.00;37.90
73322;DHT22;61549;37.044;22.128;2022-07-17T02:19:45;29.00;40.60
73322;DHT22;61549;37.044;22.128;2022-07-17T02:22:11;29.00;40.50
73322;DHT22;61549;37.044;22.128;2022-07-17T02:24:37;29.00;41.00
73322;DHT22;61549;37.044;22.128;2022-07-17T02:27:03;28.90;41.40
73322;DHT22;61549;37.044;22.128;2022-07-17T02:29:29;28.80;40.80
73322;DHT22;61549;37.044;22.128;2022-07-17T02:31:54;28.70;38.40
73322;DHT22;61549;37.044;22.128;2022-07-17T02:34:21;28.60;39.90
73322;DHT22;61549;37.044;22.128;2022-07-17T02:36:46;28.50;39.50
73322;DHT22;61549;37.044;22.128;2022-07-17T02:39:12;28.50;39.30
73322;DHT22;61549;37.044;22.128;2022-07-17T02:41:38;28.50;39.80
73322;DHT22;61549;37.044;22.128;2022-07-17T02:44:04;28.40;40.00
73322;DHT22;61549;37.044;22.128;2022-07-17T02:46:30;28.40;41.00
73322;DHT22;61549;37.044;22.128;2022-07-17T02:48:56;28.30;41.20
73322;DHT22;61549;37.044;22.128;2022-07-17T02:51:21;28.30;41.40
73322;DHT22;61549;37.044;22.128;2022-07-17T02:53:47;28.20;41.10
73322;DHT22;61549;37.044;22.128;2022-07-17T02:56:13;28.10;40.70
73322;DHT22;61549;37.044;22.128;2022-07-17T02:58:39;28.00;40.50
73322;DHT22;61549;37.044;22.128;2022-07-17T03:01:05;28.10;41.00
73322;DHT22;61549;37.044;22.128;2022-07-17T03:03:32;28.00;40.20
73322;DHT22;61549;37.044;22.128;2022-07-17T03:05:58;28.00;41.40
73322;DHT22;61549;37.044;22.128;2022-07-17T03:08:23;28.00;41.80
73322;DHT22;61549;37.044;22.128;2022-07-17T03:10:49;28.00;42.50
73322;DHT22;61549;37.044;22.128;2022-07-17T03:13:15;28.00;43.10
73322;DHT22;61549;37.044;22.128;2022-07-17T03:15:41;27.90;42.20
73322;DHT22;61549;37.044;22.128;2022-07-17T03:18:07;27.90;42.10
73322;DHT22;61549;37.044;22.128;2022-07-17T03:20:33;27.90;43.10
73322;DHT22;61549;37.044;22.128;2022-07-17T03:22:58;27.90;43.00
73322;DHT22;61549;37.044;22.128;2022-07-17T03:25:24;27.80;43.20
73322;DHT22;61549;37.044;22.128;2022-07-17T03:27:50;27.80;41.60
73322;DHT22;61549;37.044;22.128;2022-07-17T03:30:16;27.80;41.10
73322;DHT22;61549;37.044;22.128;2022-07-17T03:32:42;27.80;42.20
73322;DHT22;61549;37.044;22.128;2022-07-17T03:35:08;27.80;42.60
73322;DHT22;61549;37.044;22.128;2022-07-17T03:37:34;27.80;42.90
73322;DHT22;61549;37.044;22.128;2022-07-17T03:40:00;27.80;42.00
73322;DHT22;61549;37.044;22.128;2022-07-17T03:42:26;27.80;43.10
73322;DHT22;61549;37.044;22.128;2022-07-17T03:44:51;27.80;42.40
73322;DHT22;61549;37.044;22.128;2022-07-17T03:47:17;27.80;42.40
73322;DHT22;61549;37.044;22.128;2022-07-17T03:49:43;27.80;42.30
73322;DHT22;61549;37.044;22.128;2022-07-17T03:52:09;27.80;42.90
73322;DHT22;61549;37.044;22.128;2022-07-17T03:54:35;27.90;43.10
73322;DHT22;61549;37.044;22.128;2022-07-17T03:57:00;27.90;43.20
73322;DHT22;61549;37.044;22.128;2022-07-17T03:59:26;27.90;43.50
73322;DHT22;61549;37.044;22.128;2022-07-17T04:01:53;27.90;42.90
73322;DHT22;61549;37.044;22.128;2022-07-17T04:04:19;27.90;43.20
73322;DHT22;61549;37.044;22.128;2022-07-17T04:06:45;28.00;43.70
73322;DHT22;61549;37.044;22.128;2022-07-17T04:09:11;27.90;42.80
73322;DHT22;61549;37.044;22.128;2022-07-17T04:11:36;27.90;42.60
73322;DHT22;61549;37.044;22.128;2022-07-17T04:14:02;28.00;43.00
73322;DHT22;61549;37.044;22.128;2022-07-17T04:16:28;28.10;44.00
73322;DHT22;61549;37.044;22.128;2022-07-17T04:18:54;28.10;44.80
73322;DHT22;61549;37.044;22.128;2022-07-17T04:21:20;28.10;44.40
73322;DHT22;61549;37.044;22.128;2022-07-17T04:23:46;28.10;44.20
73322;DHT22;61549;37.044;22.128;2022-07-17T04:26:12;28.10;43.50
73322;DHT22;61549;37.044;22.128;2022-07-17T04:28:39;28.10;44.20
73322;DHT22;61549;37.044;22.128;2022-07-17T04:31:05;28.20;44.80
73322;DHT22;61549;37.044;22.128;2022-07-17T04:33:30;28.30;44.90
73322;DHT22;61549;37.044;22.128;2022-07-17T04:35:56;28.40;44.80
73322;DHT22;61549;37.044;22.128;2022-07-17T04:38:22;28.40;44.50
73322;DHT22;61549;37.044;22.128;2022-07-17T04:40:48;28.40;45.00
73322;DHT22;61549;37.044;22.128;2022-07-17T04:43:14;28.50;46.80
73322;DHT22;61549;37.044;22.128;2022-07-17T04:45:40;28.50;45.70
73322;DHT22;61549;37.044;22.128;2022-07-17T04:48:06;28.50;45.50
73322;DHT22;61549;37.044;22.128;2022-07-17T04:50:32;28.60;46.70
73322;DHT22;61549;37.044;22.128;2022-07-17T04:52:58;28.60;46.20
73322;DHT22;61549;37.044;22.128;2022-07-17T04:55:26;28.70;47.60
73322;DHT22;61549;37.044;22.128;2022-07-17T04:57:52;28.70;47.50
73322;DHT22;61549;37.044;22.128;2022-07-17T05:00:17;28.70;48.70
73322;DHT22;61549;37.044;22.128;2022-07-17T05:02:43;28.80;48.70
73322;DHT22;61549;37.044;22.128;2022-07-17T05:05:09;28.80;49.40
73322;DHT22;61549;37.044;22.128;2022-07-17T05:07:38;28.80;48.50
73322;DHT22;61549;37.044;22.128;2022-07-17T05:10:05;28.90;47.40
73322;DHT22;61549;37.044;22.128;2022-07-17T05:12:31;29.00;46.80
73322;DHT22;61549;37.044;22.128;2022-07-17T05:14:57;29.00;46.70
73322;DHT22;61549;37.044;22.128;2022-07-17T05:17:24;29.10;47.00
73322;DHT22;61549;37.044;22.128;2022-07-17T05:19:50;29.20;47.50
73322;DHT22;61549;37.044;22.128;2022-07-17T05:22:16;29.20;47.40
73322;DHT22;61549;37.044;22.128;2022-07-17T05:24:42;29.30;47.20
73322;DHT22;61549;37.044;22.128;2022-07-17T05:27:07;29.30;47.90
73322;DHT22;61549;37.044;22.128;2022-07-17T05:29:33;29.40;49.60
73322;DHT22;61549;37.044;22.128;2022-07-17T05:32:03;29.40;47.50
73322;DHT22;61549;37.044;22.128;2022-07-17T05:34:29;29.20;46.40
73322;DHT22;61549;37.044;22.128;2022-07-17T05:36:55;29.30;50.10
73322;DHT22;61549;37.044;22.128;2022-07-17T05:39:21;29.40;49.30
73322;DHT22;61549;37.044;22.128;2022-07-17T05:41:47;29.60;47.10
73322;DHT22;61549;37.044;22.128;2022-07-17T05:44:13;29.70;45.60
73322;DHT22;61549;37.044;22.128;2022-07-17T05:46:39;29.70;44.70
73322;DHT22;61549;37.044;22.128;2022-07-17T05:49:05;29.80;43.70
73322;DHT22;61549;37.044;22.128;2022-07-17T05:51:31;29.70;43.70
73322;DHT22;61549;37.044;22.128;2022-07-17T05:53:57;29.80;43.70
73322;DHT22;61549;37.044;22.128;2022-07-17T05:56:23;29.90;43.80
73322;DHT22;61549;37.044;22.128;2022-07-17T05:58:49;30.10;44.00
73322;DHT22;61549;37.044;22.128;2022-07-17T06:01:15;30.20;43.60
73322;DHT22;61549;37.044;22.128;2022-07-17T06:03:41;30.20;42.00
73322;DHT22;61549;37.044;22.128;2022-07-17T06:06:07;30.30;42.30
73322;DHT22;61549;37.044;22.128;2022-07-17T06:08:32;30.40;43.00
73322;DHT22;61549;37.044;22.128;2022-07-17T06:10:58;30.60;43.40
73322;DHT22;61549;37.044;22.128;2022-07-17T06:13:24;30.80;43.10
73322;DHT22;61549;37.044;22.128;2022-07-17T06:15:50;31.10;43.80
73322;DHT22;61549;37.044;22.128;2022-07-17T06:18:16;31.30;43.60
73322;DHT22;61549;37.044;22.128;2022-07-17T06:20:42;31.50;43.20
73322;DHT22;61549;37.044;22.128;2022-07-17T06:23:08;31.60;42.40
73322;DHT22;61549;37.044;22.128;2022-07-17T06:25:33;31.70;41.90
73322;DHT22;61549;37.044;22.128;2022-07-17T06:27:59;31.80;40.90
73322;DHT22;61549;37.044;22.128;2022-07-17T06:30:25;31.90;41.20
73322;DHT22;61549;37.044;22.128;2022-07-17T06:32:51;32.10;40.80
73322;DHT22;61549;37.044;22.128;2022-07-17T06:35:17;32.30;39.90
73322;DHT22;61549;37.044;22.128;2022-07-17T06:37:43;32.40;39.80
73322;DHT22;61549;37.044;22.128;2022-07-17T06:40:10;32.50;38.80
73322;DHT22;61549;37.044;22.128;2022-07-17T06:42:36;32.60;37.50
73322;DHT22;61549;37.044;22.128;2022-07-17T06:45:02;32.70;36.80
73322;DHT22;61549;37.044;22.128;2022-07-17T06:47:28;32.80;37.80
73322;DHT22;61549;37.044;22.128;2022-07-17T06:49:54;33.00;38.80
73322;DHT22;61549;37.044;22.128;2022-07-17T06:52:20;33.20;38.60
73322;DHT22;61549;37.044;22.128;2022-07-17T06:54:46;33.10;37.10
73322;DHT22;61549;37.044;22.128;2022-07-17T06:57:12;32.90;38.10
73322;DHT22;61549;37.044;22.128;2022-07-17T06:59:38;32.90;37.70
73322;DHT22;61549;37.044;22.128;2022-07-17T07:02:04;33.10;37.50
73322;DHT22;61549;37.044;22.128;2022-07-17T07:04:30;33.30;37.60
73322;DHT22;61549;37.044;22.128;2022-07-17T07:06:56;33.60;38.10
73322;DHT22;61549;37.044;22.128;2022-07-17T07:09:22;33.80;39.10
73322;DHT22;61549;37.044;22.128;2022-07-17T07:11:48;34.00;37.90
73322;DHT22;61549;37.044;22.128;2022-07-17T07:14:14;34.10;36.40
73322;DHT22;61549;37.044;22.128;2022-07-17T07:16:40;34.20;36.70
73322;DHT22;61549;37.044;22.128;2022-07-17T07:19:06;34.30;35.60
73322;DHT22;61549;37.044;22.128;2022-07-17T07:21:32;34.30;35.30
73322;DHT22;61549;37.044;22.128;2022-07-17T07:23:58;34.40;33.70
73322;DHT22;61549;37.044;22.128;2022-07-17T07:26:24;34.50;33.70
73322;DHT22;61549;37.044;22.128;2022-07-17T07:28:49;34.60;36.60
73322;DHT22;61549;37.044;22.128;2022-07-17T07:31:15;34.70;36.50
73322;DHT22;61549;37.044;22.128;2022-07-17T07:33:44;34.80;36.10
73322;DHT22;61549;37.044;22.128;2022-07-17T07:36:10;34.80;35.70
73322;DHT22;61549;37.044;22.128;2022-07-17T07:38:36;35.00;36.40
73322;DHT22;61549;37.044;22.128;2022-07-17T07:41:02;35.10;36.20
73322;DHT22;61549;37.044;22.128;2022-07-17T07:43:29;35.20;34.40
73322;DHT22;61549;37.044;22.128;2022-07-17T07:45:55;35.30;34.30
73322;DHT22;61549;37.044;22.128;2022-07-17T07:48:21;35.30;34.30
73322;DHT22;61549;37.044;22.128;2022-07-17T07:50:47;35.40;34.20
73322;DHT22;61549;37.044;22.128;2022-07-17T07:53:13;35.50;33.90
73322;DHT22;61549;37.044;22.128;2022-07-17T07:55:38;35.60;34.00
73322;DHT22;61549;37.044;22.128;2022-07-17T07:58:07;35.70;34.00
73322;DHT22;61549;37.044;22.128;2022-07-17T08:00:33;35.60;34.30
73322;DHT22;61549;37.044;22.128;2022-07-17T08:02:59;35.70;34.70
73322;DHT22;61549;37.044;22.128;2022-07-17T08:05:25;35.80;33.60
73322;DHT22;61549;37.044;22.128;2022-07-17T08:07:51;35.80;33.70
73322;DHT22;61549;37.044;22.128;2022-07-17T08:10:17;35.90;33.30
73322;DHT22;61549;37.044;22.128;2022-07-17T08:12:43;36.00;33.00
73322;DHT22;61549;37.044;22.128;2022-07-17T08:15:11;36.10;34.30
73322;DHT22;61549;37.044;22.128;2022-07-17T08:17:37;36.10;33.10
73322;DHT22;61549;37.044;22.128;2022-07-17T08:20:04;36.10;33.90
73322;DHT22;61549;37.044;22.128;2022-07-17T08:22:30;36.20;33.10
73322;DHT22;61549;37.044;22.128;2022-07-17T08:24:56;36.20;34.30
73322;DHT22;61549;37.044;22.128;2022-07-17T08:27:22;36.30;34.00
73322;DHT22;61549;37.044;22.128;2022-07-17T08:29:48;36.40;32.90
73322;DHT22;61549;37.044;22.128;2022-07-17T08:32:13;36.30;34.30
73322;DHT22;61549;37.044;22.128;2022-07-17T08:34:39;36.30;33.00
73322;DHT22;61549;37.044;22.128;2022-07-17T08:37:05;36.30;32.70
73322;DHT22;61549;37.044;22.128;2022-07-17T08:39:31;36.40;33.70
73322;DHT22;61549;37.044;22.128;2022-07-17T08:41:57;36.50;32.70
73322;DHT22;61549;37.044;22.128;2022-07-17T08:44:23;36.50;31.80
73322;DHT22;61549;37.044;22.128;2022-07-17T08:46:49;36.50;32.30
73322;DHT22;61549;37.044;22.128;2022-07-17T08:49:20;36.60;31.60
73322;DHT22;61549;37.044;22.128;2022-07-17T08:51:48;36.60;31.60
73322;DHT22;61549;37.044;22.128;2022-07-17T08:54:15;36.70;31.40
73322;DHT22;61549;37.044;22.128;2022-07-17T08:56:42;36.70;32.20
73322;DHT22;61549;37.044;22.128;2022-07-17T08:59:07;36.70;32.40
73322;DHT22;61549;37.044;22.128;2022-07-17T09:01:33;36.80;32.60
73322;DHT22;61549;37.044;22.128;2022-07-17T09:04:04;36.80;31.80
73322;DHT22;61549;37.044;22.128;2022-07-17T09:06:35;36.90;30.80
73322;DHT22;61549;37.044;22.128;2022-07-17T09:09:08;36.90;30.90
73322;DHT22;61549;37.044;22.128;2022-07-17T09:11:51;36.90;31.80
73322;DHT22;61549;37.044;22.128;2022-07-17T09:14:19;37.00;30.60
73322;DHT22;61549;37.044;22.128;2022-07-17T09:19:28;37.00;31.30
73322;DHT22;61549;37.044;22.128;2022-07-17T09:24:39;37.10;31.50
73322;DHT22;61549;37.044;22.128;2022-07-17T09:27:07;37.20;32.10
73322;DHT22;61549;37.044;22.128;2022-07-17T09:29:33;37.30;31.60
73322;DHT22;61549;37.044;22.128;2022-07-17T09:32:00;37.40;31.80
73322;DHT22;61549;37.044;22.128;2022-07-17T09:34:26;37.50;30.50
73322;DHT22;61549;37.044;22.128;2022-07-17T09:37:02;37.50;29.90
73322;DHT22;61549;37.044;22.128;2022-07-17T09:39:38;37.50;32.00
73322;DHT22;61549;37.044;22.128;2022-07-17T09:42:05;37.50;31.70
73322;DHT22;61549;37.044;22.128;2022-07-17T09:44:31;37.50;31.50
73322;DHT22;61549;37.044;22.128;2022-07-17T09:46:57;37.50;29.10
73322;DHT22;61549;37.044;22.128;2022-07-17T09:49:27;37.60;30.40
73322;DHT22;61549;37.044;22.128;2022-07-17T09:51:54;37.60;30.20
73322;DHT22;61549;37.044;22.128;2022-07-17T09:54:23;37.70;30.60
73322;DHT22;61549;37.044;22.128;2022-07-17T09:56:57;37.80;30.00
73322;DHT22;61549;37.044;22.128;2022-07-17T09:59:25;37.90;30.80
73322;DHT22;61549;37.044;22.128;2022-07-17T10:01:53;38.00;32.40
73322;DHT22;61549;37.044;22.128;2022-07-17T10:04:20;37.70;33.10
73322;DHT22;61549;37.044;22.128;2022-07-17T10:06:46;37.60;32.70
73322;DHT22;61549;37.044;22.128;2022-07-17T10:09:12;37.40;33.40
73322;DHT22;61549;37.044;22.128;2022-07-17T10:11:40;37.20;33.70
73322;DHT22;61549;37.044;22.128;2022-07-17T10:14:11;36.90;33.70
73322;DHT22;61549;37.044;22.128;2022-07-17T10:16:40;36.60;34.60
73322;DHT22;61549;37.044;22.128;2022-07-17T10:19:17;36.30;34.90
73322;DHT22;61549;37.044;22.128;2022-07-17T10:24:20;35.90;36.60
73322;DHT22;61549;37.044;22.128;2022-07-17T10:26:47;35.60;36.50
73322;DHT22;61549;37.044;22.128;2022-07-17T10:29:36;35.40;37.80
73322;DHT22;61549;37.044;22.128;2022-07-17T10:32:18;35.60;38.40
73322;DHT22;61549;37.044;22.128;2022-07-17T10:34:53;35.70;38.50
73322;DHT22;61549;37.044;22.128;2022-07-17T10:40:00;35.80;37.40
73322;DHT22;61549;37.044;22.128;2022-07-17T10:47:52;35.60;41.10
73322;DHT22;61549;37.044;22.128;2022-07-17T10:50:36;35.70;41.90
73322;DHT22;61549;37.044;22.128;2022-07-17T10:56:01;35.60;41.50
73322;DHT22;61549;37.044;22.128;2022-07-17T10:58:33;35.70;40.60
73322;DHT22;61549;37.044;22.128;2022-07-17T11:01:15;35.70;41.10
73322;DHT22;61549;37.044;22.128;2022-07-17T11:03:44;35.80;41.60
73322;DHT22;61549;37.044;22.128;2022-07-17T11:06:22;35.70;40.80
73322;DHT22;61549;37.044;22.128;2022-07-17T11:08:54;35.60;38.20
73322;DHT22;61549;37.044;22.128;2022-07-17T11:14:20;35.60;38.60
73322;DHT22;61549;37.044;22.128;2022-07-17T11:19:32;35.70;39.10
73322;DHT22;61549;37.044;22.128;2022-07-17T11:22:06;35.80;38.50
73322;DHT22;61549;37.044;22.128;2022-07-17T11:24:37;35.70;37.90
73322;DHT22;61549;37.044;22.128;2022-07-17T11:27:03;35.70;38.00
73322;DHT22;61549;37.044;22.128;2022-07-17T11:29:29;35.60;38.80
73322;DHT22;61549;37.044;22.128;2022-07-17T11:32:01;35.60;39.10
73322;DHT22;61549;37.044;22.128;2022-07-17T11:34:27;35.60;38.60
73322;DHT22;61549;37.044;22.128;2022-07-17T11:36:59;35.60;37.60
73322;DHT22;61549;37.044;22.128;2022-07-17T11:39:40;35.70;37.60
73322;DHT22;61549;37.044;22.128;2022-07-17T11:42:09;35.90;37.70
73322;DHT22;61549;37.044;22.128;2022-07-17T11:44:35;35.70;36.80
73322;DHT22;61549;37.044;22.128;2022-07-17T11:47:02;35.60;36.20
73322;DHT22;61549;37.044;22.128;2022-07-17T11:49:30;35.60;36.50
73322;DHT22;61549;37.044;22.128;2022-07-17T11:51:58;35.70;36.70
73322;DHT22;61549;37.044;22.128;2022-07-17T11:54:26;35.90;35.80
73322;DHT22;61549;37.044;22.128;2022-07-17T11:56:56;35.90;35.80
73322;DHT22;61549;37.044;22.128;2022-07-17T11:59:29;35.80;36.00
73322;DHT22;61549;37.044;22.128;2022-07-17T12:01:56;35.60;35.00
73322;DHT22;61549;37.044;22.128;2022-07-17T12:04:22;35.80;35.60
73322;DHT22;61549;37.044;22.128;2022-07-17T12:07:03;36.00;34.90
73322;DHT22;61549;37.044;22.128;2022-07-17T12:09:33;36.00;35.70
73322;DHT22;61549;37.044;22.128;2022-07-17T12:12:03;36.10;36.40
73322;DHT22;61549;37.044;22.128;2022-07-17T12:14:30;35.90;35.20
73322;DHT22;61549;37.044;22.128;2022-07-17T12:17:04;36.10;35.30
73322;DHT22;61549;37.044;22.128;2022-07-17T12:19:31;36.10;34.70
73322;DHT22;61549;37.044;22.128;2022-07-17T12:22:05;36.10;34.90
73322;DHT22;61549;37.044;22.128;2022-07-17T12:24:39;36.30;34.90
73322;DHT22;61549;37.044;22.128;2022-07-17T12:27:10;36.50;35.10
73322;DHT22;61549;37.044;22.128;2022-07-17T12:29:38;36.70;33.90
73322;DHT22;61549;37.044;22.128;2022-07-17T12:32:10;36.80;33.70
73322;DHT22;61549;37.044;22.128;2022-07-17T12:34:43;36.90;33.40
73322;DHT22;61549;37.044;22.128;2022-07-17T12:37:17;37.00;32.80
73322;DHT22;61549;37.044;22.128;2022-07-17T12:39:48;37.20;32.10
73322;DHT22;61549;37.044;22.128;2022-07-17T12:42:16;37.10;33.10
73322;DHT22;61549;37.044;22.128;2022-07-17T12:44:44;37.00;33.60
73322;DHT22;61549;37.044;22.128;2022-07-17T12:47:14;36.90;32.60
73322;DHT22;61549;37.044;22.128;2022-07-17T12:49:40;37.10;32.70
73322;DHT22;61549;37.044;22.128;2022-07-17T12:52:07;37.20;32.00
73322;DHT22;61549;37.044;22.128;2022-07-17T12:54:33;37.20;32.60
73322;DHT22;61549;37.044;22.128;2022-07-17T12:56:59;37.10;32.20
73322;DHT22;61549;37.044;22.128;2022-07-17T12:59:26;37.10;33.50
73322;DHT22;61549;37.044;22.128;2022-07-17T13:01:52;37.30;33.40
73322;DHT22;61549;37.044;22.128;2022-07-17T13:04:20;37.40;32.50
73322;DHT22;61549;37.044;22.128;2022-07-17T13:06:46;37.30;33.10
73322;DHT22;61549;37.044;22.128;2022-07-17T13:09:13;37.30;31.70
73322;DHT22;61549;37.044;22.128;2022-07-17T13:11:43;37.20;32.60
73322;DHT22;61549;37.044;22.128;2022-07-17T13:14:11;37.30;32.90
73322;DHT22;61549;37.044;22.128;2022-07-17T13:16:40;37.20;33.10
73322;DHT22;61549;37.044;22.128;2022-07-17T13:19:07;37.20;32.50
73322;DHT22;61549;37.044;22.128;2022-07-17T13:21:34;37.00;32.60
73322;DHT22;61549;37.044;22.128;2022-07-17T13:24:01;36.60;32.90
73322;DHT22;61549;37.044;22.128;2022-07-17T13:26:29;36.50;33.80
73322;DHT22;61549;37.044;22.128;2022-07-17T13:28:56;36.60;32.70
73322;DHT22;61549;37.044;22.128;2022-07-17T13:31:26;36.40;32.90
73322;DHT22;61549;37.044;22.128;2022-07-17T13:33:53;36.40;32.60
73322;DHT22;61549;37.044;22.128;2022-07-17T13:36:19;36.50;32.60
73322;DHT22;61549;37.044;22.128;2022-07-17T13:38:48;36.20;32.60
73322;DHT22;61549;37.044;22.128;2022-07-17T13:41:17;36.10;32.90
73322;DHT22;61549;37.044;22.128;2022-07-17T13:43:43;36.20;32.80
73322;DHT22;61549;37.044;22.128;2022-07-17T13:46:10;36.20;32.60
73322;DHT22;61549;37.044;22.128;2022-07-17T13:48:39;36.20;33.40
73322;DHT22;61549;37.044;22.128;2022-07-17T13:51:05;36.10;33.50
73322;DHT22;61549;37.044;22.128;2022-07-17T13:53:32;36.00;32.80
73322;DHT22;61549;37.044;22.128;2022-07-17T13:55:58;36.00;32.90
73322;DHT22;61549;37.044;22.128;2022-07-17T13:58:24;36.10;32.60
73322;DHT22;61549;37.044;22.128;2022-07-17T14:00:51;36.10;32.00
73322;DHT22;61549;37.044;22.128;2022-07-17T14:03:17;36.10;32.40
73322;DHT22;61549;37.044;22.128;2022-07-17T14:05:43;36.20;32.20
73322;DHT22;61549;37.044;22.128;2022-07-17T14:08:09;36.10;32.10
73322;DHT22;61549;37.044;22.128;2022-07-17T14:10:35;36.10;32.30
73322;DHT22;61549;37.044;22.128;2022-07-17T14:13:02;36.10;31.50
73322;DHT22;61549;37.044;22.128;2022-07-17T14:15:29;36.30;31.70
73322;DHT22;61549;37.044;22.128;2022-07-17T14:17:55;36.40;31.40
73322;DHT22;61549;37.044;22.128;2022-07-17T14:20:21;36.40;31.30
73322;DHT22;61549;37.044;22.128;2022-07-17T14:22:51;36.50;31.10
73322;DHT22;61549;37.044;22.128;2022-07-17T14:25:17;36.60;31.40
73322;DHT22;61549;37.044;22.128;2022-07-17T14:27:42;36.60;31.20
73322;DHT22;61549;37.044;22.128;2022-07-17T14:30:09;36.60;31.60
73322;DHT22;61549;37.044;22.128;2022-07-17T14:32:35;36.60;31.50
73322;DHT22;61549;37.044;22.128;2022-07-17T14:35:01;36.60;31.60
73322;DHT22;61549;37.044;22.128;2022-07-17T14:37:27;36.60;31.80
73322;DHT22;61549;37.044;22.128;2022-07-17T14:39:58;36.40;31.90
73322;DHT22;61549;37.044;22.128;2022-07-17T14:42:24;36.50;31.40
73322;DHT22;61549;37.044;22.128;2022-07-17T14:44:51;36.40;31.90
73322;DHT22;61549;37.044;22.128;2022-07-17T14:47:18;36.30;31.90
73322;DHT22;61549;37.044;22.128;2022-07-17T14:49:45;36.30;31.90
73322;DHT22;61549;37.044;22.128;2022-07-17T14:52:11;36.30;31.80
73322;DHT22;61549;37.044;22.128;2022-07-17T14:54:39;36.40;32.60
73322;DHT22;61549;37.044;22.128;2022-07-17T14:57:04;36.70;32.00
73322;DHT22;61549;37.044;22.128;2022-07-17T14:59:31;36.80;33.10
73322;DHT22;61549;37.044;22.128;2022-07-17T15:01:58;37.00;32.40
73322;DHT22;61549;37.044;22.128;2022-07-17T15:04:24;37.00;31.40
73322;DHT22;61549;37.044;22.128;2022-07-17T15:06:51;36.90;31.60
73322;DHT22;61549;37.044;22.128;2022-07-17T15:09:17;36.90;32.00
73322;DHT22;61549;37.044;22.128;2022-07-17T15:11:47;36.90;30.50
73322;DHT22;61549;37.044;22.128;2022-07-17T15:14:13;36.90;30.70
73322;DHT22;61549;37.044;22.128;2022-07-17T15:16:39;37.00;31.40
73322;DHT22;61549;37.044;22.128;2022-07-17T15:19:05;37.10;30.80
73322;DHT22;61549;37.044;22.128;2022-07-17T15:21:31;37.10;30.70
73322;DHT22;61549;37.044;22.128;2022-07-17T15:23:58;37.10;31.00
73322;DHT22;61549;37.044;22.128;2022-07-17T15:26:24;37.00;30.40
73322;DHT22;61549;37.044;22.128;2022-07-17T15:28:53;37.10;30.60
73322;DHT22;61549;37.044;22.128;2022-07-17T15:31:19;37.00;30.10
73322;DHT22;61549;37.044;22.128;2022-07-17T15:33:45;37.00;30.20
73322;DHT22;61549;37.044;22.128;2022-07-17T15:36:12;37.00;29.60
73322;DHT22;61549;37.044;22.128;2022-07-17T15:38:39;37.00;29.60